Time;durP1;ratioP1;P1;durP2;ratioP2;P2;SDS_P1;SDS_P2;PMS_P1;PMS_P2;Temp;Humidity;BMP_temperature;BMP_pressure;BME280_temperature;BME280_humidity;BME280_pressure;Samples;Min_cycle;Max_cycle;Signal;HPM_P1;HPM_P2
2022/11/14 00:00:27;;;;;;;37.47;26.60;;;8.50;99.90;;;;;;5129803;27;20265;-72
2022/11/14 00:02:54;;;;;;;38.03;27.20;;;8.50;99.90;;;;;;5130522;27;20300;-70
2022/11/14 00:05:21;;;;;;;37.40;26.37;;;8.50;99.90;;;;;;5129291;27;20225;-70
2022/11/14 00:07:48;;;;;;;36.47;27.03;;;8.50;99.90;;;;;;5130691;27;20491;-70
2022/11/14 00:10:16;;;;;;;37.47;26.93;;;8.50;99.90;;;;;;5130654;27;20304;-71
2022/11/14 00:12:43;;;;;;;39.77;26.80;;;8.40;99.90;;;;;;5130279;27;20237;-70
2022/11/14 00:15:12;;;;;;;35.63;25.10;;;8.40;99.90;;;;;;5129997;27;20284;-70
2022/11/14 00:17:40;;;;;;;38.90;26.70;;;8.40;99.90;;;;;;5130323;27;20239;-71
2022/11/14 00:20:08;;;;;;;38.53;26.50;;;8.40;99.90;;;;;;5130034;27;20691;-71
2022/11/14 00:22:35;;;;;;;38.97;27.03;;;8.40;99.90;;;;;;5123647;27;20281;-71
2022/11/14 00:25:02;;;;;;;39.07;27.63;;;8.40;99.90;;;;;;5109565;28;20298;-70
2022/11/14 00:27:29;;;;;;;39.43;27.43;;;8.30;99.90;;;;;;5138055;27;20256;-70
2022/11/14 00:29:56;;;;;;;40.70;27.70;;;8.30;99.90;;;;;;5150356;27;20287;-70
2022/11/14 00:32:24;;;;;;;39.27;28.03;;;8.40;99.90;;;;;;5138138;27;20193;-71
2022/11/14 00:34:51;;;;;;;37.10;26.43;;;8.30;99.90;;;;;;5130115;27;20280;-70
2022/11/14 00:37:18;;;;;;;38.87;27.33;;;8.30;99.90;;;;;;5129685;27;20233;-70
2022/11/14 00:39:45;;;;;;;40.10;28.17;;;8.20;99.90;;;;;;5130212;27;20631;-70
2022/11/14 00:42:12;;;;;;;40.33;28.00;;;8.20;99.90;;;;;;5129785;27;20642;-70
2022/11/14 00:44:39;;;;;;;40.43;28.23;;;8.20;99.90;;;;;;5129718;27;20247;-70
2022/11/14 00:47:06;;;;;;;38.13;27.07;;;8.10;99.90;;;;;;5129778;27;20241;-69
2022/11/14 00:49:34;;;;;;;41.47;27.77;;;8.10;99.90;;;;;;5129792;27;20232;-70
2022/11/14 00:52:01;;;;;;;42.10;27.43;;;8.00;99.90;;;;;;5129395;27;20724;-70
2022/11/14 00:54:28;;;;;;;41.07;29.03;;;8.00;99.90;;;;;;5129894;27;20689;-70
2022/11/14 00:56:55;;;;;;;39.53;28.23;;;8.10;99.90;;;;;;5129836;27;20597;-69
2022/11/14 00:59:22;;;;;;;43.17;28.43;;;8.10;99.90;;;;;;5125366;27;20298;-69
2022/11/14 01:01:49;;;;;;;39.50;27.60;;;8.00;99.90;;;;;;5108928;28;20322;-70
2022/11/14 01:04:18;;;;;;;41.30;27.57;;;8.00;99.90;;;;;;5108638;28;20320;-70
2022/11/14 01:06:46;;;;;;;41.87;28.07;;;7.90;99.90;;;;;;5108856;28;20210;-69
2022/11/14 01:09:13;;;;;;;42.10;28.23;;;7.90;99.90;;;;;;5120135;27;20743;-69
2022/11/14 01:11:40;;;;;;;40.53;28.13;;;8.00;99.90;;;;;;5129340;27;20228;-69
2022/11/14 01:14:07;;;;;;;42.83;28.47;;;8.00;99.90;;;;;;5126640;27;20276;-69
2022/11/14 01:16:34;;;;;;;40.57;28.40;;;8.00;99.90;;;;;;5129042;27;20295;-72
2022/11/14 01:19:01;;;;;;;40.73;28.73;;;8.00;99.90;;;;;;5129223;27;20237;-71
2022/11/14 01:21:28;;;;;;;42.83;28.13;;;7.90;99.90;;;;;;5129037;27;20302;-72
2022/11/14 01:23:57;;;;;;;43.77;29.27;;;7.90;99.90;;;;;;5110672;27;20770;-72
2022/11/14 01:26:23;;;;;;;42.80;29.87;;;7.90;99.90;;;;;;5108620;28;20233;-72
2022/11/14 01:28:50;;;;;;;44.53;29.23;;;7.80;99.90;;;;;;5108428;28;21150;-71
2022/11/14 01:31:20;;;;;;;42.67;28.50;;;7.80;99.90;;;;;;5108421;28;20493;-71
2022/11/14 01:33:49;;;;;;;44.93;29.53;;;7.80;99.90;;;;;;5108373;28;20233;-71
2022/11/14 01:36:16;;;;;;;44.37;28.27;;;7.80;99.90;;;;;;5108381;28;20669;-71
2022/11/14 01:38:43;;;;;;;42.87;29.20;;;7.80;99.90;;;;;;5108317;28;20229;-72
2022/11/14 01:41:14;;;;;;;43.90;28.87;;;7.80;99.90;;;;;;5107823;28;20220;-72
2022/11/14 01:43:41;;;;;;;42.50;28.83;;;7.80;99.90;;;;;;5128913;27;20202;-72
2022/11/14 01:46:13;;;;;;;44.70;28.97;;;7.90;99.90;;;;;;5119163;27;20217;-72
2022/11/14 01:48:43;;;;;;;44.90;30.33;;;7.80;99.90;;;;;;5109072;28;20663;-72
2022/11/14 01:51:19;;;;;;;47.40;30.23;;;7.90;99.90;;;;;;5128550;27;20589;-71
2022/11/14 01:53:50;;;;;;;45.77;30.17;;;7.80;99.90;;;;;;5141072;27;20568;-72
2022/11/14 01:56:22;;;;;;;47.30;30.47;;;7.80;99.90;;;;;;5149334;27;20291;-71
2022/11/14 01:58:53;;;;;;;44.43;30.07;;;7.80;99.90;;;;;;5149272;27;20272;-69
2022/11/14 02:01:20;;;;;;;45.90;29.60;;;7.70;99.90;;;;;;5148756;27;20659;-69
2022/11/14 02:03:51;;;;;;;50.17;31.10;;;7.70;99.90;;;;;;5149297;27;20888;-70
2022/11/14 02:06:21;;;;;;;48.83;31.23;;;7.70;99.90;;;;;;5129262;27;20197;-69
2022/11/14 02:08:49;;;;;;;46.97;29.47;;;7.80;99.90;;;;;;5128215;27;20301;-69
2022/11/14 02:11:17;;;;;;;47.90;30.07;;;7.80;99.90;;;;;;5109331;27;20234;-69
2022/11/14 02:13:44;;;;;;;42.63;29.97;;;7.80;99.90;;;;;;5108016;28;20635;-70
2022/11/14 02:16:11;;;;;;;46.93;30.70;;;7.80;99.90;;;;;;5107660;28;20202;-70
2022/11/14 02:18:38;;;;;;;46.53;29.77;;;7.80;99.90;;;;;;5107582;28;20301;-70
2022/11/14 02:21:07;;;;;;;47.33;29.63;;;7.80;99.90;;;;;;5111249;28;20225;-69
2022/11/14 02:23:34;;;;;;;46.33;30.43;;;7.80;99.90;;;;;;5113285;27;20689;-70
2022/11/14 02:26:01;;;;;;;49.03;30.23;;;7.80;99.90;;;;;;5111011;27;20288;-70
2022/11/14 02:28:28;;;;;;;46.63;30.00;;;7.80;99.90;;;;;;5149021;27;20223;-70
2022/11/14 02:30:55;;;;;;;47.93;31.00;;;7.80;99.90;;;;;;5148614;27;20315;-70
2022/11/14 02:33:22;;;;;;;47.10;30.20;;;7.80;99.90;;;;;;5149242;27;20246;-70
2022/11/14 02:35:48;;;;;;;51.30;30.47;;;7.90;99.90;;;;;;5149113;27;20288;-69
2022/11/14 02:38:17;;;;;;;47.67;29.03;;;7.90;99.90;;;;;;5136783;27;20667;-70
2022/11/14 02:40:44;;;;;;;50.07;30.63;;;7.90;99.90;;;;;;5128192;27;20300;-69
2022/11/14 02:43:10;;;;;;;47.37;29.63;;;7.90;99.90;;;;;;5107240;28;20726;-70
2022/11/14 02:45:37;;;;;;;45.10;30.00;;;8.00;99.90;;;;;;5114704;28;20197;-70
2022/11/14 02:48:05;;;;;;;50.83;30.70;;;8.00;99.90;;;;;;5122404;27;20229;-70
2022/11/14 02:50:32;;;;;;;45.93;30.03;;;7.90;99.90;;;;;;5107956;28;20288;-70
2022/11/14 02:52:59;;;;;;;48.90;30.13;;;7.90;99.90;;;;;;5107486;28;20212;-70
2022/11/14 02:55:27;;;;;;;47.27;29.63;;;7.90;99.90;;;;;;5107727;28;20206;-70
2022/11/14 02:57:54;;;;;;;51.67;29.00;;;8.00;99.90;;;;;;5142951;27;20240;-70
2022/11/14 03:00:21;;;;;;;50.03;30.80;;;7.90;99.90;;;;;;5146886;27;20268;-71
2022/11/14 03:02:48;;;;;;;48.83;30.00;;;7.90;99.90;;;;;;5127470;27;20316;-71
2022/11/14 03:05:15;;;;;;;51.10;30.83;;;8.00;99.90;;;;;;5128041;27;20296;-71
2022/11/14 03:07:41;;;;;;;50.77;29.30;;;8.00;99.90;;;;;;5127899;27;20201;-71
2022/11/14 03:10:10;;;;;;;48.43;30.00;;;7.90;99.90;;;;;;5126090;27;20229;-71
2022/11/14 03:12:38;;;;;;;50.60;29.70;;;7.90;99.90;;;;;;5127694;27;20325;-71
2022/11/14 03:15:06;;;;;;;53.30;31.10;;;7.90;99.90;;;;;;5127524;27;20205;-69
2022/11/14 03:17:34;;;;;;;48.60;30.37;;;7.90;99.90;;;;;;5127723;27;20288;-71
2022/11/14 03:20:01;;;;;;;49.23;30.53;;;7.90;99.90;;;;;;5127672;27;20229;-74
2022/11/14 03:22:27;;;;;;;47.57;29.20;;;8.00;99.90;;;;;;5124443;27;20296;-74
2022/11/14 03:24:54;;;;;;;48.83;28.77;;;7.90;99.90;;;;;;5119214;27;20240;-74
2022/11/14 03:27:21;;;;;;;50.00;29.97;;;7.90;99.90;;;;;;5104644;28;20226;-75
2022/11/14 03:29:49;;;;;;;46.87;30.30;;;8.00;99.90;;;;;;5104826;28;20206;-75
2022/11/14 03:32:17;;;;;;;49.50;30.20;;;8.00;99.90;;;;;;5106029;28;20321;-74
2022/11/14 03:34:44;;;;;;;48.60;30.20;;;8.00;99.90;;;;;;5108846;28;20216;-75
2022/11/14 03:37:11;;;;;;;46.87;29.43;;;8.00;99.90;;;;;;5111533;27;20206;-75
2022/11/14 03:39:38;;;;;;;50.07;28.90;;;7.90;99.90;;;;;;5128929;27;20328;-74
2022/11/14 03:42:05;;;;;;;46.47;29.27;;;7.90;99.90;;;;;;5120068;27;20613;-74
2022/11/14 03:44:32;;;;;;;52.10;30.17;;;7.90;99.90;;;;;;5107912;28;20255;-74
2022/11/14 03:47:00;;;;;;;49.13;30.07;;;7.90;99.90;;;;;;5144974;27;20320;-74
2022/11/14 03:49:27;;;;;;;46.70;29.37;;;7.90;99.90;;;;;;5149908;27;20209;-74
2022/11/14 03:51:54;;;;;;;46.83;28.53;;;7.90;99.90;;;;;;5149412;27;20964;-74
2022/11/14 03:54:20;;;;;;;46.87;29.20;;;7.90;99.90;;;;;;5141359;27;20232;-74
2022/11/14 03:56:47;;;;;;;43.73;27.93;;;7.90;99.90;;;;;;5121657;27;20212;-74
2022/11/14 03:59:14;;;;;;;50.73;29.83;;;7.90;99.90;;;;;;5128848;27;20292;-74
2022/11/14 04:01:41;;;;;;;46.97;28.37;;;7.90;99.90;;;;;;5128259;27;20328;-74
2022/11/14 04:04:11;;;;;;;47.10;28.57;;;7.90;99.90;;;;;;5112493;27;20234;-74
2022/11/14 04:06:38;;;;;;;49.70;29.17;;;7.90;99.90;;;;;;5110473;27;20198;-73
2022/11/14 04:09:06;;;;;;;49.93;29.67;;;7.90;99.90;;;;;;5109757;28;20637;-74
2022/11/14 04:11:33;;;;;;;47.17;29.63;;;7.90;99.90;;;;;;5109911;28;20236;-74
2022/11/14 04:14:00;;;;;;;46.13;27.93;;;7.90;99.90;;;;;;5109792;28;20292;-73
2022/11/14 04:16:26;;;;;;;45.83;27.50;;;7.90;99.90;;;;;;5109683;28;20297;-74
2022/11/14 04:18:53;;;;;;;49.50;28.47;;;7.90;99.90;;;;;;5109697;28;20202;-74
2022/11/14 04:21:21;;;;;;;48.10;28.87;;;7.90;99.90;;;;;;5109556;28;20214;-74
2022/11/14 04:23:48;;;;;;;49.23;28.93;;;7.90;99.90;;;;;;5109504;28;20229;-74
2022/11/14 04:26:25;;;;;;;50.83;29.67;;;7.90;99.90;;;;;;5113340;27;20292;-73
2022/11/14 04:28:52;;;;;;;50.17;28.10;;;7.90;99.90;;;;;;5130004;27;20197;-74
2022/11/14 04:31:19;;;;;;;44.03;28.90;;;7.80;99.90;;;;;;5129678;27;20317;-74
2022/11/14 04:33:46;;;;;;;44.73;27.73;;;7.80;99.90;;;;;;5127335;27;20289;-74
2022/11/14 04:36:13;;;;;;;48.00;29.27;;;7.80;99.90;;;;;;5130007;27;20209;-74
2022/11/14 04:38:41;;;;;;;49.80;27.83;;;7.80;99.90;;;;;;5129974;27;20288;-74
2022/11/14 04:41:08;;;;;;;47.63;28.33;;;7.70;99.90;;;;;;5130042;27;20209;-74
2022/11/14 04:43:35;;;;;;;49.20;28.40;;;7.70;99.90;;;;;;5129279;27;20236;-74
2022/11/14 04:46:01;;;;;;;50.10;28.90;;;7.70;99.90;;;;;;5129051;27;20289;-73
2022/11/14 04:48:28;;;;;;;49.00;28.53;;;7.70;99.90;;;;;;5129906;27;20293;-73
2022/11/14 04:50:55;;;;;;;48.07;28.97;;;7.70;99.90;;;;;;5129677;27;20237;-74
2022/11/14 04:53:22;;;;;;;53.37;27.63;;;7.70;99.90;;;;;;5129619;27;20590;-73
2022/11/14 04:55:50;;;;;;;45.73;27.40;;;7.60;99.90;;;;;;5129219;27;20678;-74
2022/11/14 04:58:17;;;;;;;45.57;27.57;;;7.60;99.90;;;;;;5109238;28;20234;-74
2022/11/14 05:00:44;;;;;;;46.00;27.70;;;7.60;99.90;;;;;;5108386;28;20317;-74
2022/11/14 05:03:11;;;;;;;50.87;28.23;;;7.60;99.90;;;;;;5108964;28;20646;-74
2022/11/14 05:05:37;;;;;;;47.10;27.30;;;7.60;99.90;;;;;;5108524;28;20548;-74
2022/11/14 05:08:05;;;;;;;51.87;29.00;;;7.60;99.90;;;;;;5108880;28;20202;-74
2022/11/14 05:10:32;;;;;;;51.40;28.97;;;7.60;99.90;;;;;;5108380;28;20214;-73
2022/11/14 05:13:00;;;;;;;49.07;28.27;;;7.60;99.90;;;;;;5108754;28;20529;-74
2022/11/14 05:15:27;;;;;;;49.47;28.70;;;7.60;99.90;;;;;;5108116;28;20206;-74
2022/11/14 05:17:54;;;;;;;49.93;29.87;;;7.60;99.90;;;;;;5108223;28;20301;-74
2022/11/14 05:20:20;;;;;;;51.17;28.37;;;7.60;99.90;;;;;;5108218;28;20314;-74
2022/11/14 05:22:47;;;;;;;47.70;27.03;;;7.50;99.90;;;;;;5118697;27;20209;-74
2022/11/14 05:25:14;;;;;;;47.57;27.40;;;7.50;99.90;;;;;;5108506;28;20304;-74
2022/11/14 05:27:41;;;;;;;46.93;27.90;;;7.50;99.90;;;;;;5139961;27;20323;-74
2022/11/14 05:30:11;;;;;;;52.43;29.33;;;7.50;99.90;;;;;;5143360;27;20233;-73
2022/11/14 05:32:38;;;;;;;52.50;29.70;;;7.50;99.90;;;;;;5128679;27;20324;-74
2022/11/14 05:35:06;;;;;;;49.40;28.10;;;7.50;99.90;;;;;;5128505;27;20292;-73
2022/11/14 05:37:34;;;;;;;45.70;28.00;;;7.50;99.90;;;;;;5128481;27;20251;-74
2022/11/14 05:40:01;;;;;;;55.80;30.00;;;7.50;99.90;;;;;;5128411;27;20244;-74
2022/11/14 05:42:28;;;;;;;51.13;28.50;;;7.50;99.90;;;;;;5128613;27;20955;-74
2022/11/14 05:44:55;;;;;;;53.60;29.37;;;7.50;99.90;;;;;;5127860;27;20236;-74
2022/11/14 05:47:23;;;;;;;53.43;28.07;;;7.50;99.90;;;;;;5108171;28;20285;-74
2022/11/14 05:49:50;;;;;;;53.00;29.60;;;7.50;99.90;;;;;;5115377;27;20292;-73
2022/11/14 05:52:17;;;;;;;49.07;28.23;;;7.40;99.90;;;;;;5128615;27;20268;-74
2022/11/14 05:54:44;;;;;;;53.17;30.10;;;7.40;99.90;;;;;;5127949;27;20201;-74
2022/11/14 05:57:11;;;;;;;52.70;29.67;;;7.40;99.90;;;;;;5139628;27;20212;-74
2022/11/14 05:59:38;;;;;;;49.80;28.07;;;7.40;99.90;;;;;;5148682;27;20933;-74
2022/11/14 06:02:05;;;;;;;51.93;29.87;;;7.40;99.90;;;;;;5149036;27;20235;-74
2022/11/14 06:04:33;;;;;;;49.37;29.13;;;7.40;99.90;;;;;;5144552;27;20237;-73
2022/11/14 06:07:00;;;;;;;52.63;28.97;;;7.40;99.90;;;;;;5127993;27;20324;-73
2022/11/14 06:09:26;;;;;;;52.83;29.73;;;7.40;99.90;;;;;;5128344;27;20259;-74
2022/11/14 06:11:53;;;;;;;50.27;30.07;;;7.40;99.90;;;;;;5128132;27;20225;-74
2022/11/14 06:14:20;;;;;;;46.93;27.50;;;7.40;99.90;;;;;;5127935;27;20253;-74
2022/11/14 06:16:47;;;;;;;49.37;27.80;;;7.40;99.90;;;;;;5128290;27;20296;-73
2022/11/14 06:19:14;;;;;;;52.97;29.53;;;7.40;99.90;;;;;;5127993;27;20668;-73
2022/11/14 06:21:42;;;;;;;49.80;29.03;;;7.40;99.90;;;;;;5119308;27;20640;-73
2022/11/14 06:24:09;;;;;;;52.67;28.50;;;7.40;99.90;;;;;;5107608;28;20510;-73
2022/11/14 06:26:36;;;;;;;52.73;29.30;;;7.40;99.90;;;;;;5108151;27;20308;-73
2022/11/14 06:29:03;;;;;;;51.63;28.53;;;7.40;99.90;;;;;;5107984;28;20297;-74
2022/11/14 06:31:30;;;;;;;55.23;28.77;;;7.40;99.90;;;;;;5107493;28;20627;-73
2022/11/14 06:33:57;;;;;;;49.77;27.67;;;7.40;99.90;;;;;;5111026;28;20244;-74
2022/11/14 06:36:24;;;;;;;55.50;30.13;;;7.50;99.90;;;;;;5127993;27;20237;-74
2022/11/14 06:38:52;;;;;;;51.00;28.47;;;7.40;99.90;;;;;;5127928;27;20288;-73
2022/11/14 06:41:21;;;;;;;51.40;28.47;;;7.40;99.90;;;;;;5127870;27;20724;-73
2022/11/14 06:43:49;;;;;;;50.07;28.10;;;7.50;99.90;;;;;;5128280;27;20209;-73
2022/11/14 06:46:18;;;;;;;51.83;27.43;;;7.50;99.90;;;;;;5118778;27;20642;-73
2022/11/14 06:48:47;;;;;;;48.87;28.80;;;7.50;99.90;;;;;;5107791;28;20210;-74
2022/11/14 06:51:15;;;;;;;48.07;28.83;;;7.40;99.90;;;;;;5107398;28;20296;-73
2022/11/14 06:53:43;;;;;;;44.67;27.50;;;7.40;99.90;;;;;;5106997;28;20234;-73
2022/11/14 06:56:12;;;;;;;51.47;28.17;;;7.40;99.90;;;;;;5110215;28;20209;-73
2022/11/14 06:58:41;;;;;;;47.87;26.90;;;7.40;99.90;;;;;;5127747;27;20328;-73
2022/11/14 07:01:11;;;;;;;47.77;28.23;;;7.40;99.90;;;;;;5127139;27;20241;-73
2022/11/14 07:03:38;;;;;;;48.77;27.87;;;7.40;99.90;;;;;;5127838;27;20308;-73
2022/11/14 07:06:06;;;;;;;48.00;28.77;;;7.40;99.90;;;;;;5128380;27;20635;-73
2022/11/14 07:08:33;;;;;;;49.37;28.63;;;7.40;99.90;;;;;;5131494;27;20296;-73
2022/11/14 07:11:04;;;;;;;46.67;27.77;;;7.40;99.90;;;;;;5131803;27;20296;-73
2022/11/14 07:13:33;;;;;;;51.47;28.37;;;7.40;99.90;;;;;;5131615;27;20652;-73
2022/11/14 07:16:00;;;;;;;47.90;27.87;;;7.40;99.90;;;;;;5131196;27;20253;-73
2022/11/14 07:18:29;;;;;;;50.67;28.07;;;7.50;99.90;;;;;;5131708;27;20284;-73
2022/11/14 07:21:00;;;;;;;52.00;28.30;;;7.50;99.90;;;;;;5131155;27;20657;-73
2022/11/14 07:23:28;;;;;;;49.20;28.70;;;7.50;99.90;;;;;;5129754;27;20293;-73
2022/11/14 07:25:55;;;;;;;48.67;27.23;;;7.50;99.90;;;;;;5131513;27;20305;-73
2022/11/14 07:28:22;;;;;;;50.43;28.40;;;7.60;99.90;;;;;;5151988;27;20254;-73
2022/11/14 07:30:50;;;;;;;51.97;28.57;;;7.60;99.90;;;;;;5143207;27;20209;-73
2022/11/14 07:33:17;;;;;;;49.50;29.00;;;7.60;99.90;;;;;;5131260;27;20260;-73
2022/11/14 07:35:44;;;;;;;48.90;28.63;;;7.60;99.90;;;;;;5130756;27;20734;-73
2022/11/14 07:38:10;;;;;;;49.27;28.50;;;7.70;99.90;;;;;;5138259;27;20288;-73
2022/11/14 07:40:37;;;;;;;46.27;27.53;;;7.70;99.90;;;;;;5152213;27;20208;-73
2022/11/14 07:43:04;;;;;;;47.87;26.90;;;7.80;99.90;;;;;;5138151;27;20276;-73
2022/11/14 07:45:31;;;;;;;48.80;27.67;;;7.80;99.90;;;;;;5130827;27;20300;-73
2022/11/14 07:48:02;;;;;;;53.57;28.37;;;7.80;99.90;;;;;;5130721;27;20216;-73
2022/11/14 07:50:29;;;;;;;44.23;27.17;;;7.90;99.90;;;;;;5130260;27;20664;-73
2022/11/14 07:52:57;;;;;;;50.63;28.13;;;8.00;99.90;;;;;;5130262;27;20726;-73
2022/11/14 07:55:24;;;;;;;45.57;27.60;;;8.00;99.90;;;;;;5130792;27;20206;-73
2022/11/14 07:57:53;;;;;;;52.00;28.70;;;8.10;99.90;;;;;;5148015;27;20664;-73
2022/11/14 08:00:20;;;;;;;45.47;27.70;;;8.10;99.90;;;;;;5150958;27;20602;-73
2022/11/14 08:02:47;;;;;;;49.90;28.43;;;8.20;99.90;;;;;;5151640;27;20281;-73
2022/11/14 08:05:16;;;;;;;47.33;27.43;;;8.20;99.90;;;;;;5151349;27;20291;-73
2022/11/14 08:07:43;;;;;;;48.90;27.93;;;8.30;99.90;;;;;;5150679;27;20683;-73
2022/11/14 08:10:12;;;;;;;43.80;25.97;;;8.30;99.90;;;;;;5151154;27;20212;-73
2022/11/14 08:12:40;;;;;;;47.33;26.43;;;8.40;99.90;;;;;;5150998;27;20271;-73
2022/11/14 08:15:08;;;;;;;44.60;27.10;;;8.50;99.90;;;;;;5150582;27;20257;-73
2022/11/14 08:17:35;;;;;;;43.57;26.53;;;8.60;99.90;;;;;;5150419;27;20765;-74
2022/11/14 08:20:03;;;;;;;42.97;25.90;;;8.60;99.90;;;;;;5122091;27;20210;-73
2022/11/14 08:22:31;;;;;;;44.73;25.87;;;8.70;99.90;;;;;;5125246;27;20204;-73
2022/11/14 08:24:58;;;;;;;44.87;26.50;;;8.70;99.90;;;;;;5130263;27;20212;-73
2022/11/14 08:27:25;;;;;;;42.63;26.43;;;8.80;99.90;;;;;;5127963;27;20329;-73
2022/11/14 08:29:52;;;;;;;40.17;24.80;;;8.90;99.90;;;;;;5128953;27;20304;-73
2022/11/14 08:32:19;;;;;;;45.87;26.80;;;8.90;99.90;;;;;;5109556;28;20300;-73
2022/11/14 08:34:46;;;;;;;44.37;25.63;;;9.00;99.90;;;;;;5119977;27;20289;-73
2022/11/14 08:37:14;;;;;;;39.97;25.77;;;9.10;99.90;;;;;;5129625;27;20725;-73
2022/11/14 08:39:42;;;;;;;39.73;25.33;;;9.10;99.90;;;;;;5130068;27;20212;-73
2022/11/14 08:42:09;;;;;;;41.63;25.03;;;9.20;99.90;;;;;;5129845;27;20210;-73
2022/11/14 08:44:36;;;;;;;45.40;25.50;;;9.20;99.90;;;;;;5129800;27;20327;-73
2022/11/14 08:47:03;;;;;;;42.87;26.03;;;9.30;99.90;;;;;;5129848;27;20633;-73
2022/11/14 08:49:30;;;;;;;41.20;25.13;;;9.40;99.90;;;;;;5129735;27;20341;-73
2022/11/14 08:51:57;;;;;;;47.33;26.63;;;9.40;99.90;;;;;;5129886;27;20259;-73
2022/11/14 08:54:24;;;;;;;42.87;25.27;;;9.40;99.90;;;;;;5129540;27;20228;-73
2022/11/14 08:56:52;;;;;;;43.80;26.07;;;9.50;99.90;;;;;;5120572;27;20234;-73
2022/11/14 08:59:19;;;;;;;40.23;25.27;;;9.50;99.90;;;;;;5109293;28;20289;-73
2022/11/14 09:01:46;;;;;;;44.80;26.67;;;9.60;99.90;;;;;;5109085;28;20238;-73
2022/11/14 09:04:13;;;;;;;40.27;25.07;;;9.60;99.90;;;;;;5108813;28;20206;-73
2022/11/14 09:06:40;;;;;;;42.70;25.47;;;9.70;99.90;;;;;;5109078;28;20297;-73
2022/11/14 09:09:07;;;;;;;40.30;26.30;;;9.70;99.90;;;;;;5108748;28;20252;-73
2022/11/14 09:11:34;;;;;;;42.33;25.60;;;9.70;99.90;;;;;;5108850;28;20624;-73
2022/11/14 09:14:02;;;;;;;43.40;25.57;;;9.80;99.90;;;;;;5108887;28;20283;-73
2022/11/14 09:16:29;;;;;;;42.87;26.10;;;9.90;99.90;;;;;;5125171;27;20660;-73
2022/11/14 09:18:56;;;;;;;43.33;25.60;;;9.90;99.90;;;;;;5129115;27;20747;-73
2022/11/14 09:21:23;;;;;;;42.07;26.10;;;9.90;99.90;;;;;;5129086;27;20640;-73
2022/11/14 09:23:50;;;;;;;40.93;24.63;;;10.00;99.90;;;;;;5128773;27;20209;-73
2022/11/14 09:26:17;;;;;;;43.60;25.63;;;10.00;99.90;;;;;;5130689;27;20275;-73
2022/11/14 09:28:44;;;;;;;41.33;25.23;;;10.00;99.90;;;;;;5129214;27;20209;-73
2022/11/14 09:31:13;;;;;;;40.73;24.87;;;10.10;99.90;;;;;;5127667;27;20229;-73
2022/11/14 09:33:40;;;;;;;40.90;25.80;;;10.10;99.90;;;;;;5129143;27;20232;-73
2022/11/14 09:36:09;;;;;;;40.70;24.83;;;10.20;99.90;;;;;;5128987;27;20634;-73
2022/11/14 09:38:36;;;;;;;38.70;24.60;;;10.30;99.90;;;;;;5128698;27;20284;-73
2022/11/14 09:41:15;;;;;;;39.13;23.83;;;10.30;99.90;;;;;;5128922;27;20258;-74
2022/11/14 09:44:00;;;;;;;40.63;25.37;;;10.30;99.90;;;;;;5129092;27;20280;-73
2022/11/14 09:46:33;;;;;;;38.27;23.83;;;10.40;99.90;;;;;;5128650;27;20293;-73
2022/11/14 09:49:00;;;;;;;39.90;24.47;;;10.50;99.90;;;;;;5128966;27;20289;-73
2022/11/14 09:51:31;;;;;;;42.23;24.87;;;10.60;99.90;;;;;;5128773;27;20197;-73
2022/11/14 09:54:06;;;;;;;38.43;24.03;;;10.70;99.90;;;;;;5128195;27;20312;-73
2022/11/14 09:56:34;;;;;;;40.20;24.10;;;10.80;99.90;;;;;;5134735;27;20291;-73
2022/11/14 09:59:01;;;;;;;39.27;24.70;;;10.90;99.90;;;;;;5149246;27;20292;-73
2022/11/14 10:01:40;;;;;;;39.73;25.27;;;11.00;99.90;;;;;;5148597;27;20315;-73
2022/11/14 10:04:17;;;;;;;36.03;22.67;;;11.10;99.90;;;;;;5149199;27;20192;-73
2022/11/14 10:06:53;;;;;;;35.13;23.17;;;11.10;99.90;;;;;;5148999;27;20546;-74
2022/11/14 10:09:44;;;;;;;35.00;23.17;;;11.20;99.90;;;;;;5149284;27;20284;-73
2022/11/14 10:12:17;;;;;;;34.93;21.97;;;11.30;99.90;;;;;;5126931;27;20212;-73
2022/11/14 10:15:17;;;;;;;35.00;22.60;;;11.30;99.90;;;;;;5107622;28;20531;-73
2022/11/14 10:18:10;;;;;;;33.37;22.17;;;11.40;99.90;;;;;;5105872;28;20724;-73
2022/11/14 10:20:41;;;;;;;35.70;21.77;;;11.50;99.90;;;;;;5107815;28;20237;-73
2022/11/14 10:23:25;;;;;;;33.33;21.30;;;11.60;99.90;;;;;;5118329;28;20205;-73
2022/11/14 10:25:56;;;;;;;32.40;20.87;;;11.70;99.90;;;;;;5128264;27;20190;-73
2022/11/14 10:28:49;;;;;;;27.30;19.90;;;11.80;99.90;;;;;;5129007;27;20201;-73
2022/11/14 10:31:25;;;;;;;28.33;19.00;;;11.80;99.90;;;;;;5125119;27;20293;-73
2022/11/14 10:34:03;;;;;;;32.07;20.80;;;11.80;99.90;;;;;;5128019;27;20319;-73
2022/11/14 10:36:46;;;;;;;30.37;19.87;;;11.90;99.90;;;;;;5128114;27;20303;-73
2022/11/14 10:39:18;;;;;;;30.27;20.63;;;11.90;99.90;;;;;;5127674;27;20229;-73
2022/11/14 10:41:46;;;;;;;27.10;19.00;;;12.00;99.90;;;;;;5129539;27;20280;-73
2022/11/14 10:44:18;;;;;;;31.03;19.93;;;12.20;99.90;;;;;;5131896;27;20713;-73
2022/11/14 10:46:50;;;;;;;30.23;20.00;;;12.20;99.90;;;;;;5132023;27;20200;-73
2022/11/14 10:49:21;;;;;;;28.13;19.93;;;12.40;99.90;;;;;;5132312;27;20636;-74
2022/11/14 10:51:52;;;;;;;28.57;20.50;;;12.40;99.90;;;;;;5132311;27;20228;-73
2022/11/14 10:54:25;;;;;;;27.70;19.43;;;12.40;99.90;;;;;;5132234;27;20345;-73
2022/11/14 10:56:54;;;;;;;29.10;20.13;;;12.50;99.90;;;;;;5140927;27;20215;-73
2022/11/14 10:59:21;;;;;;;27.47;19.33;;;12.50;99.90;;;;;;5152604;27;20287;-73
2022/11/14 11:01:54;;;;;;;27.63;19.50;;;12.60;99.90;;;;;;5152565;27;20207;-73
2022/11/14 11:04:26;;;;;;;27.50;18.83;;;12.60;99.90;;;;;;5152410;27;20196;-73
2022/11/14 11:06:55;;;;;;;27.57;19.97;;;12.70;99.90;;;;;;5152442;27;20308;-73
2022/11/14 11:12:15;;;;;;;25.90;19.07;;;12.70;99.90;;;;;;5111133;28;20308;-73
2022/11/14 11:14:42;;;;;;;26.87;18.50;;;12.80;99.90;;;;;;5111115;28;20218;-73
2022/11/14 11:17:22;;;;;;;25.90;19.63;;;13.00;99.90;;;;;;5130825;27;20756;-73
2022/11/14 11:19:50;;;;;;;29.00;19.77;;;13.10;99.90;;;;;;5131582;27;20382;-73
2022/11/14 11:22:38;;;;;;;29.07;19.57;;;13.20;99.90;;;;;;5127559;27;20294;-73
2022/11/14 11:25:23;;;;;;;26.07;19.50;;;13.30;99.90;;;;;;5107452;27;20244;-73
2022/11/14 11:28:06;;;;;;;27.47;19.63;;;13.30;99.90;;;;;;5128019;27;20240;-73
2022/11/14 11:30:33;;;;;;;24.40;19.30;;;13.40;99.90;;;;;;5131412;27;20189;-74
2022/11/14 11:33:16;;;;;;;26.40;18.83;;;13.30;99.90;;;;;;5131187;27;20216;-73
2022/11/14 11:35:47;;;;;;;24.30;18.40;;;13.30;99.90;;;;;;5131311;27;20284;-73
2022/11/14 11:38:16;;;;;;;28.97;19.50;;;13.50;99.90;;;;;;5131452;27;20193;-74
2022/11/14 11:40:46;;;;;;;29.00;19.80;;;13.60;99.90;;;;;;5131365;27;20292;-73
2022/11/14 11:43:21;;;;;;;28.33;19.20;;;13.70;99.90;;;;;;5130930;27;20196;-73
2022/11/14 11:45:50;;;;;;;23.00;18.03;;;13.70;99.90;;;;;;5130398;27;20228;-73
2022/11/14 11:48:19;;;;;;;22.43;17.70;;;13.80;99.90;;;;;;5131116;27;20292;-73
2022/11/14 11:50:49;;;;;;;24.07;17.97;;;13.80;99.90;;;;;;5130899;27;20211;-73
2022/11/14 11:53:21;;;;;;;23.00;17.37;;;13.80;99.90;;;;;;5129701;27;20284;-73
2022/11/14 11:55:51;;;;;;;22.70;17.30;;;13.80;99.90;;;;;;5130999;27;20284;-73
2022/11/14 11:58:23;;;;;;;23.77;17.63;;;13.80;99.90;;;;;;5131097;27;20198;-73
2022/11/14 12:00:53;;;;;;;23.47;18.17;;;13.80;99.90;;;;;;5130477;27;20233;-73
2022/11/14 12:03:21;;;;;;;23.27;17.67;;;13.80;99.90;;;;;;5130863;27;20204;-73
2022/11/14 12:05:57;;;;;;;23.03;17.87;;;13.70;99.90;;;;;;5130212;27;20584;-73
2022/11/14 12:08:32;;;;;;;22.87;17.83;;;13.70;99.90;;;;;;5130690;27;20277;-73
2022/11/14 12:11:01;;;;;;;24.63;17.30;;;13.70;99.90;;;;;;5130263;27;20625;-73
2022/11/14 12:13:49;;;;;;;23.83;18.07;;;13.70;99.90;;;;;;5130193;27;20256;-74
2022/11/14 12:16:35;;;;;;;24.70;18.30;;;13.60;99.90;;;;;;5130259;27;20289;-73
2022/11/14 12:19:38;;;;;;;22.83;17.60;;;13.70;99.90;;;;;;5126661;27;20205;-73
2022/11/14 12:22:35;;;;;;;24.47;18.00;;;13.80;99.90;;;;;;5119924;27;20760;-73
2022/11/14 12:25:34;;;;;;;22.30;17.20;;;13.80;99.90;;;;;;5128776;27;20292;-73
2022/11/14 12:28:12;;;;;;;23.37;18.40;;;13.90;99.90;;;;;;5111284;27;20321;-73
2022/11/14 12:30:41;;;;;;;20.57;16.20;;;13.90;99.90;;;;;;5109573;28;20230;-73
2022/11/14 12:33:11;;;;;;;25.93;17.87;;;14.00;99.90;;;;;;5109254;28;20212;-73
2022/11/14 12:35:47;;;;;;;23.67;18.40;;;14.10;99.90;;;;;;5109513;28;20641;-73
2022/11/14 12:38:18;;;;;;;24.70;18.60;;;14.00;99.90;;;;;;5109481;28;20200;-73
2022/11/14 12:40:51;;;;;;;23.33;17.70;;;14.00;99.90;;;;;;5109436;28;20225;-73
2022/11/14 12:43:34;;;;;;;24.87;17.63;;;14.00;99.90;;;;;;5109325;28;20318;-73
2022/11/14 12:46:05;;;;;;;24.50;17.67;;;14.10;99.90;;;;;;5108847;28;20564;-73